sensor_id;sensor_type;location;lat;lon;timestamp;pressure;altitude;pressure_sealevel;temperature;humidity
43818;BME280;29868;47.360;18.984;2024-03-08T00:01:55;61910.38;;;4.86;100.00
43818;BME280;29868;47.360;18.984;2024-03-08T00:04:20;61911.59;;;4.82;100.00
43818;BME280;29868;47.360;18.984;2024-03-08T00:06:46;61910.59;;;4.88;100.00
43818;BME280;29868;47.360;18.984;2024-03-08T00:09:13;61914.94;;;4.85;100.00
43818;BME280;29868;47.360;18.984;2024-03-08T00:11:39;61919.59;;;4.92;100.00
43818;BME280;29868;47.360;18.984;2024-03-08T00:14:04;61922.47;;;4.90;100.00
43818;BME280;29868;47.360;18.984;2024-03-08T00:16:33;61928.25;;;4.98;100.00
43818;BME280;29868;47.360;18.984;2024-03-08T00:19:00;61934.69;;;5.01;100.00
43818;BME280;29868;47.360;18.984;2024-03-08T00:21:26;61944.91;;;5.13;100.00
43818;BME280;29868;47.360;18.984;2024-03-08T00:23:52;61943.78;;;5.12;100.00
43818;BME280;29868;47.360;18.984;2024-03-08T00:26:20;61934.69;;;5.01;100.00
43818;BME280;29868;47.360;18.984;2024-03-08T00:28:47;61937.34;;;5.08;100.00
43818;BME280;29868;47.360;18.984;2024-03-08T00:31:14;61932.56;;;5.06;100.00
43818;BME280;29868;47.360;18.984;2024-03-08T00:33:41;61940.22;;;5.06;100.00
43818;BME280;29868;47.360;18.984;2024-03-08T00:36:06;61934.34;;;5.03;100.00
43818;BME280;29868;47.360;18.984;2024-03-08T00:38:32;61924.38;;;4.94;100.00
43818;BME280;29868;47.360;18.984;2024-03-08T00:40:59;61931.03;;;5.00;100.00
43818;BME280;29868;47.360;18.984;2024-03-08T00:43:25;61937.34;;;5.08;100.00
43818;BME280;29868;47.360;18.984;2024-03-08T00:45:51;61931.78;;;5.03;100.00
43818;BME280;29868;47.360;18.984;2024-03-08T00:48:16;61936.34;;;5.03;100.00
43818;BME280;29868;47.360;18.984;2024-03-08T00:50:42;61922.38;;;4.95;100.00
43818;BME280;29868;47.360;18.984;2024-03-08T00:53:11;61926.56;;;4.96;100.00
43818;BME280;29868;47.360;18.984;2024-03-08T00:55:36;61923.25;;;4.93;100.00
43818;BME280;29868;47.360;18.984;2024-03-08T00:58:03;61918.03;;;4.86;100.00
43818;BME280;29868;47.360;18.984;2024-03-08T01:00:29;61926.81;;;4.99;100.00
43818;BME280;29868;47.360;18.984;2024-03-08T01:02:54;61926.03;;;4.96;100.00
43818;BME280;29868;47.360;18.984;2024-03-08T01:05:20;61927.34;;;4.99;100.00
43818;BME280;29868;47.360;18.984;2024-03-08T01:07:45;61921.81;;;4.94;100.00
43818;BME280;29868;47.360;18.984;2024-03-08T01:10:11;61917.16;;;4.87;100.00
43818;BME280;29868;47.360;18.984;2024-03-08T01:12:38;61905.94;;;4.82;100.00
43818;BME280;29868;47.360;18.984;2024-03-08T01:15:04;61921.03;;;4.91;100.00
43818;BME280;29868;47.360;18.984;2024-03-08T01:17:30;61933.47;;;5.05;100.00
43818;BME280;29868;47.360;18.984;2024-03-08T01:19:56;61938.22;;;5.07;100.00
43818;BME280;29868;47.360;18.984;2024-03-08T01:22:21;61925.47;;;4.95;100.00
43818;BME280;29868;47.360;18.984;2024-03-08T01:24:48;61933.78;;;5.03;100.00
43818;BME280;29868;47.360;18.984;2024-03-08T01:27:14;61924.38;;;4.94;100.00
43818;BME280;29868;47.360;18.984;2024-03-08T01:29:39;61914.81;;;4.90;100.00
43818;BME280;29868;47.360;18.984;2024-03-08T01:32:05;61926.25;;;4.98;100.00
43818;BME280;29868;47.360;18.984;2024-03-08T01:34:31;61908.72;;;4.84;100.00
43818;BME280;29868;47.360;18.984;2024-03-08T01:36:58;61915.16;;;4.88;100.00
43818;BME280;29868;47.360;18.984;2024-03-08T01:39:24;61940.47;;;5.09;100.00
43818;BME280;29868;47.360;18.984;2024-03-08T01:41:49;61920.78;;;4.88;100.00
43818;BME280;29868;47.360;18.984;2024-03-08T01:44:15;61931.59;;;5.01;100.00
43818;BME280;29868;47.360;18.984;2024-03-08T01:46:44;61928.81;;;4.98;100.00
43818;BME280;29868;47.360;18.984;2024-03-08T01:49:11;61931.03;;;5.00;100.00
43818;BME280;29868;47.360;18.984;2024-03-08T01:51:38;61925.47;;;4.95;100.00
43818;BME280;29868;47.360;18.984;2024-03-08T01:54:06;61929.91;;;4.99;100.00
43818;BME280;29868;47.360;18.984;2024-03-08T01:56:32;61942.66;;;5.11;100.00
43818;BME280;29868;47.360;18.984;2024-03-08T01:58:59;61937.34;;;5.08;100.00
43818;BME280;29868;47.360;18.984;2024-03-08T02:01:25;61930.47;;;5.00;100.00
43818;BME280;29868;47.360;18.984;2024-03-08T02:03:50;61917.38;;;4.90;100.00
43818;BME280;29868;47.360;18.984;2024-03-08T02:06:16;61922.13;;;4.92;100.00
43818;BME280;29868;47.360;18.984;2024-03-08T02:08:43;61931.78;;;5.03;100.00
43818;BME280;29868;47.360;18.984;2024-03-08T02:11:10;61937.22;;;5.01;100.00
43818;BME280;29868;47.360;18.984;2024-03-08T02:13:35;61920.72;;;4.93;100.00
43818;BME280;29868;47.360;18.984;2024-03-08T02:16:01;61938.78;;;5.07;100.00
43818;BME280;29868;47.360;18.984;2024-03-08T02:18:28;61940.34;;;5.13;100.00
43818;BME280;29868;47.360;18.984;2024-03-08T02:20:57;61933.13;;;5.07;100.00
43818;BME280;29868;47.360;18.984;2024-03-08T02:23:23;61935.13;;;5.06;100.00
43818;BME280;29868;47.360;18.984;2024-03-08T02:25:53;61939.91;;;5.08;100.00
43818;BME280;29868;47.360;18.984;2024-03-08T02:28:19;61944.34;;;5.12;100.00
43818;BME280;29868;47.360;18.984;2024-03-08T02:30:45;61949.03;;;5.19;100.00
43818;BME280;29868;47.360;18.984;2024-03-08T02:33:17;61936.22;;;5.07;100.00
43818;BME280;29868;47.360;18.984;2024-03-08T02:35:47;61926.25;;;4.98;100.00
43818;BME280;29868;47.360;18.984;2024-03-08T02:38:17;61935.78;;;5.02;100.00
43818;BME280;29868;47.360;18.984;2024-03-08T02:40:44;61928.25;;;4.98;100.00
43818;BME280;29868;47.360;18.984;2024-03-08T02:43:11;61938.34;;;5.14;100.00
43818;BME280;29868;47.360;18.984;2024-03-08T02:45:36;61933.25;;;5.02;100.00
43818;BME280;29868;47.360;18.984;2024-03-08T02:48:02;61928.81;;;4.98;100.00
43818;BME280;29868;47.360;18.984;2024-03-08T02:50:28;61910.16;;;4.83;100.00
43818;BME280;29868;47.360;18.984;2024-03-08T02:52:53;61914.03;;;4.87;100.00
43818;BME280;29868;47.360;18.984;2024-03-08T02:55:19;61907.94;;;4.81;100.00
43818;BME280;29868;47.360;18.984;2024-03-08T02:57:45;61910.38;;;4.86;100.00
43818;BME280;29868;47.360;18.984;2024-03-08T03:00:12;61915.16;;;4.88;100.00
43818;BME280;29868;47.360;18.984;2024-03-08T03:02:38;61922.03;;;4.97;100.00
43818;BME280;29868;47.360;18.984;2024-03-08T03:05:05;61923.81;;;4.94;100.00
43818;BME280;29868;47.360;18.984;2024-03-08T03:07:34;61916.59;;;4.87;100.00
43818;BME280;29868;47.360;18.984;2024-03-08T03:10:00;61922.13;;;4.92;100.00
43818;BME280;29868;47.360;18.984;2024-03-08T03:12:29;61915.16;;;4.88;100.00
43818;BME280;29868;47.360;18.984;2024-03-08T03:14:56;61935.00;;;4.99;100.00
43818;BME280;29868;47.360;18.984;2024-03-08T03:17:23;61887.09;;;4.64;100.00
43818;BME280;29868;47.360;18.984;2024-03-08T03:19:48;61897.72;;;4.70;100.00
43818;BME280;29868;47.360;18.984;2024-03-08T03:22:14;61892.41;;;4.67;100.00
43818;BME280;29868;47.360;18.984;2024-03-08T03:24:41;61909.94;;;4.81;100.00
43818;BME280;29868;47.360;18.984;2024-03-08T03:27:07;61911.06;;;4.82;100.00
43818;BME280;29868;47.360;18.984;2024-03-08T03:29:43;61916.28;;;4.89;100.00
43818;BME280;29868;47.360;18.984;2024-03-08T03:32:13;61921.25;;;4.94;100.00
43818;BME280;29868;47.360;18.984;2024-03-08T03:34:42;61925.16;;;4.97;100.00
43818;BME280;29868;47.360;18.984;2024-03-08T03:37:09;61926.91;;;4.94;100.00
43818;BME280;29868;47.360;18.984;2024-03-08T03:39:38;61899.41;;;4.71;100.00
43818;BME280;29868;47.360;18.984;2024-03-08T03:42:19;61912.16;;;4.83;100.00
43818;BME280;29868;47.360;18.984;2024-03-08T03:44:48;61900.50;;;4.72;100.00
43818;BME280;29868;47.360;18.984;2024-03-08T03:47:17;61894.41;;;4.67;100.00
43818;BME280;29868;47.360;18.984;2024-03-08T03:49:42;61901.28;;;4.75;100.00
43818;BME280;29868;47.360;18.984;2024-03-08T03:52:08;61898.84;;;4.71;100.00
43818;BME280;29868;47.360;18.984;2024-03-08T03:54:33;61903.28;;;4.75;100.00
43818;BME280;29868;47.360;18.984;2024-03-08T03:56:59;61894.72;;;4.64;100.00
43818;BME280;29868;47.360;18.984;2024-03-08T03:59:25;61896.06;;;4.68;100.00
43818;BME280;29868;47.360;18.984;2024-03-08T04:01:51;61890.41;;;4.68;100.00
43818;BME280;29868;47.360;18.984;2024-03-08T04:04:16;61898.28;;;4.70;100.00
43818;BME280;29868;47.360;18.984;2024-03-08T04:06:42;61897.06;;;4.74;100.00
43818;BME280;29868;47.360;18.984;2024-03-08T04:09:07;61890.53;;;4.63;100.00
43818;BME280;29868;47.360;18.984;2024-03-08T04:11:33;61896.63;;;4.69;100.00
43818;BME280;29868;47.360;18.984;2024-03-08T04:13:58;61921.91;;;4.90;100.00
43818;BME280;29868;47.360;18.984;2024-03-08T04:16:24;61905.81;;;4.75;100.00
43818;BME280;29868;47.360;18.984;2024-03-08T04:18:51;61912.16;;;4.83;100.00
43818;BME280;29868;47.360;18.984;2024-03-08T12:19:34;62260.56;;;8.08;100.00
43818;BME280;29868;47.360;18.984;2024-03-08T12:22:07;62266.47;;;8.11;100.00
43818;BME280;29868;47.360;18.984;2024-03-08T12:24:35;62283.84;;;8.22;100.00
43818;BME280;29868;47.360;18.984;2024-03-08T12:27:17;62282.41;;;8.23;100.00
43818;BME280;29868;47.360;18.984;2024-03-08T12:29:43;62297.22;;;8.34;100.00
43818;BME280;29868;47.360;18.984;2024-03-08T12:32:08;62305.03;;;8.41;100.00
43818;BME280;29868;47.360;18.984;2024-03-08T12:34:36;62296.56;;;8.38;100.00
43818;BME280;29868;47.360;18.984;2024-03-08T12:37:02;62303.25;;;8.44;100.00
43818;BME280;29868;47.360;18.984;2024-03-08T12:39:27;62305.81;;;8.44;100.00
43818;BME280;29868;47.360;18.984;2024-03-08T12:41:55;62312.16;;;8.52;100.00
43818;BME280;29868;47.360;18.984;2024-03-08T12:44:22;62331.09;;;8.70;100.00
43818;BME280;29868;47.360;18.984;2024-03-08T12:46:48;62350.38;;;8.85;100.00
43818;BME280;29868;47.360;18.984;2024-03-08T12:49:14;62345.38;;;8.81;100.00
43818;BME280;29868;47.360;18.984;2024-03-08T12:51:46;62349.28;;;8.84;100.00
43818;BME280;29868;47.360;18.984;2024-03-08T12:54:11;62349.28;;;8.84;100.00
43818;BME280;29868;47.360;18.984;2024-03-08T12:56:37;62346.28;;;8.79;100.00
43818;BME280;29868;47.360;18.984;2024-03-08T12:59:07;62344.81;;;8.80;100.00
43818;BME280;29868;47.360;18.984;2024-03-08T13:01:33;62323.66;;;8.61;100.00
43818;BME280;29868;47.360;18.984;2024-03-08T13:03:59;62297.34;;;8.41;100.00
43818;BME280;29868;47.360;18.984;2024-03-08T13:06:28;62295.22;;;8.35;100.00
43818;BME280;29868;47.360;18.984;2024-03-08T13:08:54;62293.75;;;8.36;100.00
43818;BME280;29868;47.360;18.984;2024-03-08T13:11:24;62283.50;;;8.24;100.00
43818;BME280;29868;47.360;18.984;2024-03-08T13:13:50;62282.97;;;8.23;100.00
43818;BME280;29868;47.360;18.984;2024-03-08T13:16:16;62295.22;;;8.35;100.00
43818;BME280;29868;47.360;18.984;2024-03-08T13:18:46;62288.31;;;8.26;100.00
43818;BME280;29868;47.360;18.984;2024-03-08T13:21:15;62279.63;;;8.20;100.00
43818;BME280;29868;47.360;18.984;2024-03-08T13:23:43;62282.19;;;8.20;100.00
43818;BME280;29868;47.360;18.984;2024-03-08T13:26:15;62284.63;;;8.25;100.00
43818;BME280;29868;47.360;18.984;2024-03-08T13:28:51;62263.13;;;8.08;100.00
43818;BME280;29868;47.360;18.984;2024-03-08T13:31:20;62263.47;;;8.05;100.00
43818;BME280;29868;47.360;18.984;2024-03-08T13:33:45;62261.25;;;8.03;100.00
43818;BME280;29868;47.360;18.984;2024-03-08T13:36:13;62253.88;;;8.01;100.00
43818;BME280;29868;47.360;18.984;2024-03-08T13:38:45;62252.91;;;7.96;100.00
43818;BME280;29868;47.360;18.984;2024-03-08T13:41:12;62243.41;;;7.87;100.00
43818;BME280;29868;47.360;18.984;2024-03-08T13:43:40;62249.00;;;7.92;100.00
43818;BME280;29868;47.360;18.984;2024-03-08T13:46:06;62246.44;;;7.92;100.00
43818;BME280;29868;47.360;18.984;2024-03-08T13:48:33;62254.00;;;7.97;100.00
43818;BME280;29868;47.360;18.984;2024-03-08T13:51:01;62259.00;;;8.01;100.00
43818;BME280;29868;47.360;18.984;2024-03-08T13:53:29;62263.13;;;8.08;100.00
43818;BME280;29868;47.360;18.984;2024-03-08T13:56:19;62281.63;;;8.20;100.00
43818;BME280;29868;47.360;18.984;2024-03-08T13:58:43;62276.81;;;8.18;100.00
43818;BME280;29868;47.360;18.984;2024-03-08T14:01:09;62269.59;;;8.11;100.00
43818;BME280;29868;47.360;18.984;2024-03-08T14:03:37;62262.00;;;8.07;100.00
43818;BME280;29868;47.360;18.984;2024-03-08T14:06:02;62272.72;;;8.12;100.00
43818;BME280;29868;47.360;18.984;2024-03-08T14:08:29;62252.22;;;8.00;100.00
43818;BME280;29868;47.360;18.984;2024-03-08T14:10:55;62247.53;;;7.93;100.00
43818;BME280;29868;47.360;18.984;2024-03-08T14:13:20;62245.88;;;7.92;100.00
43818;BME280;29868;47.360;18.984;2024-03-08T14:15:46;62235.28;;;7.82;100.00
43818;BME280;29868;47.360;18.984;2024-03-08T14:18:11;62247.31;;;7.91;100.00
43818;BME280;29868;47.360;18.984;2024-03-08T14:20:38;62240.66;;;7.85;100.00
43818;BME280;29868;47.360;18.984;2024-03-08T14:23:04;62236.19;;;7.80;100.00
43818;BME280;29868;47.360;18.984;2024-03-08T14:25:31;62243.75;;;7.85;100.00
43818;BME280;29868;47.360;18.984;2024-03-08T14:27:57;62236.41;;;7.83;100.00
43818;BME280;29868;47.360;18.984;2024-03-08T14:30:32;62228.06;;;7.75;100.00
43818;BME280;29868;47.360;18.984;2024-03-08T14:32:58;62231.16;;;7.76;100.00
43818;BME280;29868;47.360;18.984;2024-03-08T14:35:25;62222.81;;;7.68;100.00
43818;BME280;29868;47.360;18.984;2024-03-08T14:37:51;62210.56;;;7.57;100.00
43818;BME280;29868;47.360;18.984;2024-03-08T14:40:18;62210.38;;;7.54;100.00
43818;BME280;29868;47.360;18.984;2024-03-08T14:42:48;62206.13;;;7.53;100.00
43818;BME280;29868;47.360;18.984;2024-03-08T14:45:15;62198.78;;;7.51;100.00
43818;BME280;29868;47.360;18.984;2024-03-08T14:47:40;62207.81;;;7.54;100.00
43818;BME280;29868;47.360;18.984;2024-03-08T14:50:06;62207.47;;;7.56;100.00
43818;BME280;29868;47.360;18.984;2024-03-08T14:52:32;62197.78;;;7.45;100.00
43818;BME280;29868;47.360;18.984;2024-03-08T14:54:58;62201.34;;;7.51;100.00
43818;BME280;29868;47.360;18.984;2024-03-08T14:57:23;62206.34;;;7.55;100.00
43818;BME280;29868;47.360;18.984;2024-03-08T14:59:49;62193.78;;;7.46;100.00
43818;BME280;29868;47.360;18.984;2024-03-08T15:02:15;62195.22;;;7.45;100.00
43818;BME280;29868;47.360;18.984;2024-03-08T15:04:48;62195.78;;;7.46;100.00
43818;BME280;29868;47.360;18.984;2024-03-08T15:07:22;62191.66;;;7.40;100.00
43818;BME280;29868;47.360;18.984;2024-03-08T15:09:47;62200.34;;;7.45;100.00
43818;BME280;29868;47.360;18.984;2024-03-08T15:12:13;62198.56;;;7.48;100.00
43818;BME280;29868;47.360;18.984;2024-03-08T15:14:40;62196.13;;;7.44;100.00
43818;BME280;29868;47.360;18.984;2024-03-08T15:17:09;62193.56;;;7.44;100.00
43818;BME280;29868;47.360;18.984;2024-03-08T15:19:38;62195.56;;;7.43;100.00
43818;BME280;29868;47.360;18.984;2024-03-08T15:22:03;62200.34;;;7.45;100.00
43818;BME280;29868;47.360;18.984;2024-03-08T15:24:29;62191.13;;;7.39;100.00
43818;BME280;29868;47.360;18.984;2024-03-08T15:26:54;62194.44;;;7.42;100.00
43818;BME280;29868;47.360;18.984;2024-03-08T15:29:20;62186.56;;;7.40;100.00
43818;BME280;29868;47.360;18.984;2024-03-08T15:31:52;62187.78;;;7.36;100.00
43818;BME280;29868;47.360;18.984;2024-03-08T15:34:19;62187.22;;;7.36;100.00
43818;BME280;29868;47.360;18.984;2024-03-08T15:36:49;62171.63;;;7.21;100.00
43818;BME280;29868;47.360;18.984;2024-03-08T15:39:16;62183.88;;;7.32;100.00
43818;BME280;29868;47.360;18.984;2024-03-08T15:41:42;62174.09;;;7.26;100.00
43818;BME280;29868;47.360;18.984;2024-03-08T15:44:09;62178.88;;;7.28;100.00
43818;BME280;29868;47.360;18.984;2024-03-08T15:46:38;62173.84;;;7.23;100.00
43818;BME280;29868;47.360;18.984;2024-03-08T15:49:05;62172.41;;;7.24;100.00
43818;BME280;29868;47.360;18.984;2024-03-08T15:51:31;62170.97;;;7.25;100.00
43818;BME280;29868;47.360;18.984;2024-03-08T15:53:58;62169.97;;;7.20;100.00
43818;BME280;29868;47.360;18.984;2024-03-08T15:56:23;62170.75;;;7.23;100.00
43818;BME280;29868;47.360;18.984;2024-03-08T15:58:49;62176.88;;;7.28;100.00
43818;BME280;29868;47.360;18.984;2024-03-08T16:01:16;62172.53;;;7.20;100.00
43818;BME280;29868;47.360;18.984;2024-03-08T16:03:43;62179.97;;;7.29;100.00
43818;BME280;29868;47.360;18.984;2024-03-08T16:06:10;62162.19;;;7.13;100.00
43818;BME280;29868;47.360;18.984;2024-03-08T16:08:36;62152.63;;;7.09;100.00
43818;BME280;29868;47.360;18.984;2024-03-08T16:11:04;62158.06;;;7.06;100.00
43818;BME280;29868;47.360;18.984;2024-03-08T16:13:34;62166.97;;;7.15;100.00
43818;BME280;29868;47.360;18.984;2024-03-08T16:16:06;62156.63;;;7.07;100.00
43818;BME280;29868;47.360;18.984;2024-03-08T16:18:31;62160.50;;;7.11;100.00
43818;BME280;29868;47.360;18.984;2024-03-08T16:21:00;62168.84;;;7.19;100.00
43818;BME280;29868;47.360;18.984;2024-03-08T16:23:28;62160.50;;;7.11;100.00
43818;BME280;29868;47.360;18.984;2024-03-08T16:25:53;62158.84;;;7.10;100.00
43818;BME280;29868;47.360;18.984;2024-03-08T16:28:19;62149.72;;;6.99;100.00
43818;BME280;29868;47.360;18.984;2024-03-08T16:30:49;62151.84;;;7.05;100.00
43818;BME280;29868;47.360;18.984;2024-03-08T16:33:15;62152.16;;;7.03;100.00
43818;BME280;29868;47.360;18.984;2024-03-08T16:35:41;62145.16;;;6.99;100.00
43818;BME280;29868;47.360;18.984;2024-03-08T16:38:13;62128.81;;;6.82;100.00
43818;BME280;29868;47.360;18.984;2024-03-08T16:40:40;62136.59;;;6.89;100.00
43818;BME280;29868;47.360;18.984;2024-03-08T16:43:06;62130.47;;;6.83;100.00
43818;BME280;29868;47.360;18.984;2024-03-08T16:45:36;62129.38;;;6.82;100.00
43818;BME280;29868;47.360;18.984;2024-03-08T16:48:02;62115.47;;;6.70;100.00
43818;BME280;29868;47.360;18.984;2024-03-08T16:50:28;62109.59;;;6.67;100.00
43818;BME280;29868;47.360;18.984;2024-03-08T16:52:57;62116.25;;;6.73;100.00
43818;BME280;29868;47.360;18.984;2024-03-08T16:55:22;62114.34;;;6.69;100.00
43818;BME280;29868;47.360;18.984;2024-03-08T16:57:48;62109.91;;;6.65;100.00
43818;BME280;29868;47.360;18.984;2024-03-08T17:00:24;62103.69;;;6.64;100.00
43818;BME280;29868;47.360;18.984;2024-03-08T17:02:56;62115.13;;;6.72;100.00
43818;BME280;29868;47.360;18.984;2024-03-08T17:05:26;62105.13;;;6.63;100.00
43818;BME280;29868;47.360;18.984;2024-03-08T17:08:00;62109.13;;;6.62;100.00
43818;BME280;29868;47.360;18.984;2024-03-08T17:10:29;62103.22;;;6.58;100.00
43818;BME280;29868;47.360;18.984;2024-03-08T17:12:56;62117.91;;;6.74;100.00
43818;BME280;29868;47.360;18.984;2024-03-08T17:15:29;62119.25;;;6.78;100.00
43818;BME280;29868;47.360;18.984;2024-03-08T17:17:58;62111.25;;;6.68;100.00
43818;BME280;29868;47.360;18.984;2024-03-08T17:20:34;62115.13;;;6.72;100.00
43818;BME280;29868;47.360;18.984;2024-03-08T17:23:05;62091.78;;;6.50;100.00
43818;BME280;29868;47.360;18.984;2024-03-08T17:25:34;62094.00;;;6.52;100.00
43818;BME280;29868;47.360;18.984;2024-03-08T17:28:00;62087.09;;;6.44;100.00
43818;BME280;29868;47.360;18.984;2024-03-08T17:30:31;62081.00;;;6.38;100.00
43818;BME280;29868;47.360;18.984;2024-03-08T17:33:02;62085.13;;;6.44;100.00
43818;BME280;29868;47.360;18.984;2024-03-08T17:35:36;62075.44;;;6.33;100.00
43818;BME280;29868;47.360;18.984;2024-03-08T17:38:04;62092.69;;;6.49;100.00
43818;BME280;29868;47.360;18.984;2024-03-08T17:40:37;62077.13;;;6.34;100.00
43818;BME280;29868;47.360;18.984;2024-03-08T17:43:04;62087.09;;;6.44;100.00
43818;BME280;29868;47.360;18.984;2024-03-08T17:45:33;62081.78;;;6.41;100.00
43818;BME280;29868;47.360;18.984;2024-03-08T17:48:01;62089.88;;;6.46;100.00
43818;BME280;29868;47.360;18.984;2024-03-08T17:50:27;62076.44;;;6.39;100.00
43818;BME280;29868;47.360;18.984;2024-03-08T17:52:53;62072.00;;;6.34;100.00
43818;BME280;29868;47.360;18.984;2024-03-08T17:55:19;62072.31;;;6.32;100.00
43818;BME280;29868;47.360;18.984;2024-03-08T17:57:47;62077.66;;;6.35;100.00
43818;BME280;29868;47.360;18.984;2024-03-08T18:00:15;62078.78;;;6.36;100.00
43818;BME280;29868;47.360;18.984;2024-03-08T18:02:48;62077.34;;;6.37;100.00
43818;BME280;29868;47.360;18.984;2024-03-08T18:05:20;62076.22;;;6.36;100.00
43818;BME280;29868;47.360;18.984;2024-03-08T18:07:50;62081.00;;;6.38;100.00
43818;BME280;29868;47.360;18.984;2024-03-08T18:10:16;62076.56;;;6.34;100.00
43818;BME280;29868;47.360;18.984;2024-03-08T18:12:54;62078.78;;;6.36;100.00
43818;BME280;29868;47.360;18.984;2024-03-08T18:15:24;62061.53;;;6.20;100.00
43818;BME280;29868;47.360;18.984;2024-03-08T18:17:54;62058.13;;;6.22;100.00
43818;BME280;29868;47.360;18.984;2024-03-08T18:20:28;62062.88;;;6.24;100.00
43818;BME280;29868;47.360;18.984;2024-03-08T18:23:02;62078.44;;;6.38;100.00
43818;BME280;29868;47.360;18.984;2024-03-08T18:25:29;62074.88;;;6.32;100.00
43818;BME280;29868;47.360;18.984;2024-03-08T18:27:56;62070.09;;;6.30;100.00
43818;BME280;29868;47.360;18.984;2024-03-08T18:30:25;62074.31;;;6.32;100.00
43818;BME280;29868;47.360;18.984;2024-03-08T18:32:51;62059.88;;;6.19;100.00
43818;BME280;29868;47.360;18.984;2024-03-08T18:35:20;62071.00;;;6.29;100.00
43818;BME280;29868;47.360;18.984;2024-03-08T18:37:47;62065.44;;;6.24;100.00
43818;BME280;29868;47.360;18.984;2024-03-08T18:40:16;62063.53;;;6.20;100.00
43818;BME280;29868;47.360;18.984;2024-03-08T18:42:43;62065.44;;;6.24;100.00
43818;BME280;29868;47.360;18.984;2024-03-08T18:45:13;62062.44;;;6.19;100.00
43818;BME280;29868;47.360;18.984;2024-03-08T18:47:50;62068.00;;;6.24;100.00
43818;BME280;29868;47.360;18.984;2024-03-08T18:50:18;62067.66;;;6.26;100.00
43818;BME280;29868;47.360;18.984;2024-03-08T18:52:45;62061.34;;;6.18;100.00
43818;BME280;29868;47.360;18.984;2024-03-08T18:55:13;62050.88;;;6.15;100.00
43818;BME280;29868;47.360;18.984;2024-03-08T18:57:44;62063.53;;;6.20;100.00
43818;BME280;29868;47.360;18.984;2024-03-08T19:00:17;62051.22;;;6.13;100.00
43818;BME280;29868;47.360;18.984;2024-03-08T19:02:56;62064.34;;;6.23;100.00
43818;BME280;29868;47.360;18.984;2024-03-08T19:05:23;62066.00;;;6.24;100.00
43818;BME280;29868;47.360;18.984;2024-03-08T19:07:51;62061.22;;;6.22;100.00
43818;BME280;29868;47.360;18.984;2024-03-08T19:10:19;62067.66;;;6.26;100.00
43818;BME280;29868;47.360;18.984;2024-03-08T19:12:52;62066.53;;;6.25;100.00
43818;BME280;29868;47.360;18.984;2024-03-08T19:15:31;62069.31;;;6.27;100.00
43818;BME280;29868;47.360;18.984;2024-03-08T19:18:01;62056.53;;;6.16;100.00
43818;BME280;29868;47.360;18.984;2024-03-08T19:20:28;62055.88;;;6.20;100.00
43818;BME280;29868;47.360;18.984;2024-03-08T19:22:56;62058.56;;;6.15;100.00
43818;BME280;29868;47.360;18.984;2024-03-08T19:25:30;62059.53;;;6.21;100.00
43818;BME280;29868;47.360;18.984;2024-03-08T19:28:02;62063.22;;;6.22;100.00
43818;BME280;29868;47.360;18.984;2024-03-08T19:30:29;62055.88;;;6.20;100.00
43818;BME280;29868;47.360;18.984;2024-03-08T19:33:02;62056.78;;;6.18;100.00
43818;BME280;29868;47.360;18.984;2024-03-08T19:35:28;62058.78;;;6.18;100.00
43818;BME280;29868;47.360;18.984;2024-03-08T19:37:56;62063.22;;;6.22;100.00
43818;BME280;29868;47.360;18.984;2024-03-08T19:40:23;62062.09;;;6.21;100.00
43818;BME280;29868;47.360;18.984;2024-03-08T19:42:56;62066.22;;;6.27;100.00
43818;BME280;29868;47.360;18.984;2024-03-08T19:45:23;62062.66;;;6.21;100.00
43818;BME280;29868;47.360;18.984;2024-03-08T19:47:56;62069.88;;;6.28;100.00
43818;BME280;29868;47.360;18.984;2024-03-08T19:50:26;62076.31;;;6.31;100.00
43818;BME280;29868;47.360;18.984;2024-03-08T19:52:53;62063.22;;;6.22;100.00
43818;BME280;29868;47.360;18.984;2024-03-08T19:55:22;62059.09;;;6.16;100.00
43818;BME280;29868;47.360;18.984;2024-03-08T19:57:49;62057.66;;;6.17;100.00
43818;BME280;29868;47.360;18.984;2024-03-08T20:00:17;62061.53;;;6.20;100.00
43818;BME280;29868;47.360;18.984;2024-03-08T20:02:48;62051.00;;;6.11;100.00
43818;BME280;29868;47.360;18.984;2024-03-08T20:05:15;62049.00;;;6.11;100.00
43818;BME280;29868;47.360;18.984;2024-03-08T20:07:42;62050.44;;;6.10;100.00
43818;BME280;29868;47.360;18.984;2024-03-08T20:10:13;62043.22;;;6.03;100.00
43818;BME280;29868;47.360;18.984;2024-03-08T20:12:40;62042.66;;;6.03;100.00
43818;BME280;29868;47.360;18.984;2024-03-08T20:15:09;62040.66;;;6.03;100.00
43818;BME280;29868;47.360;18.984;2024-03-08T20:17:39;62045.44;;;6.05;100.00
43818;BME280;29868;47.360;18.984;2024-03-08T20:20:06;62037.56;;;6.03;100.00
43818;BME280;29868;47.360;18.984;2024-03-08T20:22:32;62048.22;;;6.08;100.00
43818;BME280;29868;47.360;18.984;2024-03-08T20:24:58;62048.75;;;6.08;100.00
43818;BME280;29868;47.360;18.984;2024-03-08T20:27:26;62041.78;;;6.04;100.00
43818;BME280;29868;47.360;18.984;2024-03-08T20:29:53;62038.44;;;6.01;100.00
43818;BME280;29868;47.360;18.984;2024-03-08T20:32:19;62044.31;;;6.04;100.00
43818;BME280;29868;47.360;18.984;2024-03-08T20:34:46;62050.78;;;6.08;100.00
43818;BME280;29868;47.360;18.984;2024-03-08T20:37:11;62033.22;;;5.94;100.00
43818;BME280;29868;47.360;18.984;2024-03-08T20:39:39;62036.00;;;5.97;100.00
43818;BME280;29868;47.360;18.984;2024-03-08T20:42:04;62063.22;;;6.22;100.00
43818;BME280;29868;47.360;18.984;2024-03-08T20:44:31;62050.44;;;6.10;100.00
43818;BME280;29868;47.360;18.984;2024-03-08T20:46:57;62044.00;;;6.06;100.00
43818;BME280;29868;47.360;18.984;2024-03-08T20:49:23;62044.00;;;6.06;100.00
43818;BME280;29868;47.360;18.984;2024-03-08T20:51:49;62046.56;;;6.06;100.00